Time;durP1;ratioP1;P1;durP2;ratioP2;P2;SDS_P1;SDS_P2;PMS_P1;PMS_P2;Temp;Humidity;BMP_temperature;BMP_pressure;BME280_temperature;BME280_humidity;BME280_pressure;Samples;Min_cycle;Max_cycle;Signal;HPM_P1;HPM_P2
2022/05/04 07:29:08;;;;;;;13.73;3.25;;;;;;;;;;6171033;23;20040;-88
2022/05/04 07:54:23;;;;;;;13.07;3.70;;;9.70;99.90;;;;;;6111090;23;20069;-89
2022/05/04 08:39:48;;;;;;;;;;;;;;;;;;6174625;23;20116;-89
2022/05/04 17:38:35;;;;;;;11.30;3.70;;;;;;;;;;6179192;23;20029;-88
2022/05/04 17:45:26;;;;;;;11.85;4.03;;;;;;;;;;6028406;23;20050;-89
2022/05/04 17:48:04;;;;;;;10.60;3.70;;;;;;;;;;6005886;23;20015;-91
2022/05/04 17:50:39;;;;;;;11.88;4.28;;;;;;;;;;6100750;23;20029;-88
2022/05/04 17:56:04;;;;;;;13.13;4.00;;;;;;;;;;6118531;23;20493;-91
2022/05/04 17:58:30;;;;;;;14.25;3.80;;;;;;;;;;6097310;23;20086;-89
2022/05/04 18:00:56;;;;;;;11.73;3.97;;;;;;;;;;6102859;23;20013;-89
2022/05/04 18:03:34;;;;;;;12.10;4.07;;;;;;;;;;6099392;23;20024;-89
2022/05/04 18:06:08;;;;;;;17.17;3.97;;;;;;;;;;6103523;23;20009;-90
2022/05/04 18:08:35;;;;;;;13.48;4.05;;;;;;;;;;6124101;23;20009;-89
2022/05/04 18:11:02;;;;;;;11.13;4.00;;;;;;;;;;6102756;23;20053;-88
2022/05/04 18:13:28;;;;;;;10.85;4.15;;;;;;;;;;6125426;23;20529;-88
2022/05/04 18:15:54;;;;;;;13.93;3.95;;;;;;;;;;6101649;23;20056;-90
2022/05/04 18:18:21;;;;;;;12.00;4.68;;;;;;;;;;6133809;23;20024;-90
2022/05/04 18:20:47;;;;;;;12.30;3.92;;;;;;;;;;6133022;23;20032;-90
2022/05/04 18:23:13;;;;;;;13.23;4.50;;;;;;;;;;6107525;23;20042;-87
2022/05/04 18:25:39;;;;;;;13.70;4.50;;;;;;;;;;6136345;23;20060;-89
2022/05/04 18:28:06;;;;;;;16.55;4.07;;;;;;;;;;6109885;23;20886;-90
2022/05/04 18:30:33;;;;;;;12.65;4.35;;;;;;;;;;6137093;23;20019;-90
2022/05/04 18:33:00;;;;;;;9.27;4.10;;;;;;;;;;6139523;23;20009;-87
2022/05/04 18:35:29;;;;;;;18.05;4.07;;;;;;;;;;6110821;23;20017;-89
2022/05/04 18:37:56;;;;;;;12.35;4.32;;;;;;;;;;6106240;23;20128;-89
2022/05/04 18:40:22;;;;;;;12.98;4.00;;;;;;;;;;6107249;23;20698;-89
2022/05/04 18:42:51;;;;;;;11.15;4.28;;;;;;;;;;6133440;23;20072;-89
2022/05/04 18:45:20;;;;;;;18.48;4.20;;;;;;;;;;6131572;23;20611;-89
2022/05/04 18:47:46;;;;;;;10.23;4.03;;;;;;;;;;6135621;23;20072;-89
2022/05/04 18:50:19;;;;;;;10.73;4.30;;;;;;;;;;6111627;23;20221;-88
2022/05/04 18:52:46;;;;;;;16.67;4.63;;;;;;;;;;6131450;23;20024;-90
2022/05/04 18:55:12;;;;;;;14.20;4.65;;;;;;;;;;6106737;23;20013;-87
2022/05/04 18:57:44;;;;;;;18.13;4.22;;;;;;;;;;6131270;23;20013;-90
2022/05/04 19:00:14;;;;;;;8.90;3.72;;;;;;;;;;6127421;23;20013;-89
2022/05/04 19:02:41;;;;;;;12.23;4.32;;;;;;;;;;6136111;23;20119;-90
2022/05/04 19:05:13;;;;;;;13.23;4.63;;;;;;;;;;6108429;23;20480;-90
2022/05/04 19:07:39;;;;;;;15.65;4.78;;;;;;;;;;6125182;23;20021;-90
2022/05/04 19:10:06;;;;;;;12.68;4.15;;;;;;;;;;6128599;23;20056;-90
2022/05/04 19:12:32;;;;;;;10.35;3.90;;;;;;;;;;6125470;23;20017;-89
2022/05/04 19:14:59;;;;;;;10.80;4.07;;;;;;;;;;6096799;23;20021;-91
2022/05/04 19:17:30;;;;;;;14.13;4.22;;;;;;;;;;6102159;23;20013;-91
2022/05/04 19:20:13;;;;;;;14.10;4.55;;;;;;;;;;6108664;23;20072;-90
2022/05/04 19:22:48;;;;;;;16.08;4.07;;;;;;;;;;6109208;23;20091;-90
2022/05/04 19:25:24;;;;;;;;;;;;;;;;;;;;;
2022/05/04 19:27:59;;;;;;;12.23;3.85;;;;;;;;;;6131843;23;20509;-91
2022/05/04 19:30:38;;;;;;;13.20;4.37;;;;;;;;;;6133515;23;20021;-91
2022/05/04 19:33:13;;;;;;;14.70;3.85;;;;;;;;;;6130724;23;20780;-88
2022/05/04 19:36:00;;;;;;;;;;;;;;;;;;;;;
2022/05/04 19:38:32;;;;;;;11.52;3.88;;;10.80;99.90;;;;;;6107747;23;20020;-90
2022/05/04 19:41:11;;;;;;;;;;;;;;;;;;;;;
2022/05/04 19:43:40;;;;;;;14.55;4.50;;;10.50;99.90;;;;;;6128219;23;20332;-90
2022/05/04 19:46:11;;;;;;;11.90;4.15;;;10.40;99.90;;;;;;6126282;23;20009;-90
2022/05/04 19:48:43;;;;;;;11.95;4.55;;;10.40;99.90;;;;;;6125903;23;20016;-89
2022/05/04 19:51:12;;;;;;;13.80;6.03;;;10.30;99.90;;;;;;6127075;23;20053;-90
2022/05/04 19:54:07;;;;;;;;;;;;;;;;;;;;;
2022/05/04 19:56:49;;;;;;;16.80;5.28;;;10.20;99.90;;;;;;6187977;23;20350;-89
2022/05/04 19:59:33;;;;;;;12.45;4.45;;;10.10;99.90;;;;;;6143155;23;20080;-89
2022/05/04 20:02:20;;;;;;;;;;;;;;;;;;;;;
2022/05/04 20:05:00;;;;;;;;;;;;;;;;;;;;;
2022/05/04 20:07:39;;;;;;;;;;;;;;;;;;;;;
2022/05/04 20:10:13;;;;;;;17.65;5.50;;;9.90;99.90;;;;;;6151625;23;20024;-88
2022/05/04 20:12:50;;;;;;;13.27;5.10;;;9.90;99.90;;;;;;6128556;23;20024;-90
2022/05/04 20:15:16;;;;;;;12.88;5.20;;;9.80;99.90;;;;;;6126524;23;20017;-90
2022/05/04 20:17:45;;;;;;;14.43;5.82;;;9.70;99.90;;;;;;6126676;23;20068;-90
2022/05/04 20:20:14;;;;;;;15.10;5.80;;;9.70;99.90;;;;;;6128147;23;20386;-90
2022/05/04 20:22:40;;;;;;;13.38;5.35;;;9.60;99.90;;;;;;6123284;23;20227;-89
2022/05/04 20:25:16;;;;;;;14.23;4.90;;;9.60;99.90;;;;;;6122386;23;20048;-90
2022/05/04 20:28:00;;;;;;;13.45;4.22;;;9.50;99.90;;;;;;6095935;23;20036;-90
2022/05/04 20:30:36;;;;;;;10.38;4.05;;;9.50;99.90;;;;;;6101604;23;20597;-90
2022/05/04 20:33:04;;;;;;;13.63;4.90;;;9.40;99.90;;;;;;6119608;23;20658;-90
2022/05/04 20:35:30;;;;;;;13.27;4.72;;;9.40;99.90;;;;;;6122498;23;20021;-90
2022/05/04 20:40:42;;;;;;;11.32;4.63;;;9.30;99.90;;;;;;6133898;23;20055;-89
2022/05/04 20:43:08;;;;;;;13.43;5.25;;;9.20;99.90;;;;;;6080489;23;20013;-90
2022/05/04 20:45:37;;;;;;;18.33;4.82;;;9.10;99.90;;;;;;6102013;23;20320;-90
2022/05/04 20:48:03;;;;;;;13.35;5.22;;;9.10;99.90;;;;;;6151898;23;20024;-90
2022/05/04 20:53:14;;;;;;;12.30;4.40;;;9.00;99.90;;;;;;6148325;23;20025;-90
2022/05/04 20:55:41;;;;;;;14.48;5.10;;;8.90;99.90;;;;;;6075429;23;20060;-90
2022/05/04 20:58:11;;;;;;;11.75;4.80;;;8.90;99.90;;;;;;6122581;23;20049;-90
2022/05/04 21:00:38;;;;;;;14.07;4.50;;;8.90;99.90;;;;;;6098010;23;20017;-90
2022/05/04 21:03:04;;;;;;;11.65;4.78;;;8.80;99.90;;;;;;6103187;23;20067;-91
2022/05/04 21:05:30;;;;;;;19.08;4.32;;;8.80;99.90;;;;;;6078847;23;20100;-90
2022/05/04 21:07:56;;;;;;;15.48;4.55;;;8.80;99.90;;;;;;6103928;23;20009;-89
2022/05/04 21:10:21;;;;;;;17.73;5.07;;;8.70;99.90;;;;;;6078163;23;20017;-90
2022/05/04 21:12:47;;;;;;;12.55;5.13;;;8.70;99.90;;;;;;6074183;23;20021;-90
2022/05/04 21:15:14;;;;;;;14.73;4.93;;;8.60;99.90;;;;;;6127010;23;20554;-90
2022/05/04 21:17:43;;;;;;;14.93;4.53;;;8.60;99.90;;;;;;6077249;23;20017;-90
2022/05/04 21:20:09;;;;;;;10.57;4.22;;;8.60;99.90;;;;;;6097834;23;20016;-90
2022/05/04 21:22:35;;;;;;;10.82;4.57;;;8.50;99.90;;;;;;6084495;23;20017;-90
2022/05/04 21:25:01;;;;;;;10.70;4.68;;;8.50;99.90;;;;;;6076035;23;20711;-90
2022/05/04 21:27:26;;;;;;;14.70;4.95;;;8.50;99.90;;;;;;6127525;23;20017;-89
2022/05/04 21:29:52;;;;;;;11.60;4.70;;;8.40;99.90;;;;;;6079744;23;20017;-91
2022/05/04 21:32:20;;;;;;;13.88;5.25;;;8.40;99.90;;;;;;6080024;23;20013;-90
2022/05/04 21:34:47;;;;;;;16.38;5.70;;;8.30;99.90;;;;;;6127883;23;20017;-91
2022/05/04 21:37:13;;;;;;;14.68;5.20;;;8.30;99.90;;;;;;6083092;23;20020;-92
2022/05/04 21:39:40;;;;;;;10.95;5.18;;;8.20;99.90;;;;;;6079478;23;20017;-91
2022/05/04 21:42:06;;;;;;;13.20;5.05;;;8.20;99.90;;;;;;6127486;23;20023;-91
2022/05/04 21:44:32;;;;;;;14.65;5.30;;;;;;;;;;6100831;23;20041;-91
2022/05/04 21:46:58;;;;;;;19.70;5.05;;;;;;;;;;6103546;23;20013;-90
2022/05/04 21:49:25;;;;;;;20.55;6.00;;;;;;;;;;6104361;23;20013;-91
2022/05/04 21:51:53;;;;;;;10.20;5.57;;;;;;;;;;6105876;23;20032;-90
2022/05/04 21:54:20;;;;;;;11.93;4.63;;;;;;;;;;6128079;23;20009;-91
2022/05/04 21:56:46;;;;;;;13.50;5.25;;;;;;;;;;6100573;23;20091;-89
2022/05/04 21:59:12;;;;;;;19.85;5.60;;;;;;;;;;6099104;23;20450;-91
2022/05/04 22:01:38;;;;;;;14.57;5.18;;;;;;;;;;6098455;23;20021;-91
2022/05/04 22:04:04;;;;;;;17.15;5.20;;;;;;;;;;6123816;23;20009;-90
2022/05/04 22:06:31;;;;;;;10.88;5.20;;;;;;;;;;6096635;23;20107;-90
2022/05/04 22:08:57;;;;;;;13.20;4.47;;;;;;;;;;6084704;23;20024;-91
2022/05/04 22:14:07;;;;;;;11.77;4.63;;;;;;;;;;6110353;23;20036;-90
2022/05/04 22:16:34;;;;;;;11.75;4.80;;;;;;;;;;6085849;23;20017;-91
2022/05/04 22:19:00;;;;;;;13.48;5.07;;;;;;;;;;6119603;23;20012;-90
2022/05/04 22:21:27;;;;;;;14.13;5.03;;;;;;;;;;6099374;23;20040;-90
2022/05/04 22:23:53;;;;;;;17.50;5.53;;;;;;;;;;6098629;23;20021;-90
2022/05/04 22:26:20;;;;;;;12.07;5.32;;;;;;;;;;6098259;23;20060;-90
2022/05/04 22:28:48;;;;;;;12.90;5.25;;;;;;;;;;6122911;23;20020;-90
2022/05/04 22:31:14;;;;;;;12.90;5.78;;;;;;;;;;6122915;23;20064;-90
2022/05/04 22:33:40;;;;;;;12.63;6.00;;;;;;;;;;6101077;23;20176;-90
2022/05/04 22:36:06;;;;;;;9.35;5.07;;;;;;;;;;6125916;23;20028;-90
2022/05/04 22:38:34;;;;;;;12.55;5.00;;;;;;;;;;6109874;23;20013;-92
2022/05/04 22:41:00;;;;;;;9.82;5.15;;;;;;;;;;6148481;23;20017;-91
2022/05/04 22:43:26;;;;;;;11.50;5.65;;;;;;;;;;6113841;23;20020;-90
2022/05/04 22:45:53;;;;;;;17.50;6.00;;;;;;;;;;6121764;23;20092;-91
2022/05/04 22:48:19;;;;;;;17.33;6.22;;;;;;;;;;6121199;23;20071;-90
2022/05/04 22:50:45;;;;;;;16.73;5.80;;;;;;;;;;6118908;23;20392;-90
2022/05/04 22:53:11;;;;;;;14.40;6.15;;;;;;;;;;6097491;23;20357;-90
2022/05/04 22:55:40;;;;;;;11.70;5.03;;;;;;;;;;6124943;23;20020;-91
2022/05/04 22:58:06;;;;;;;13.95;6.97;;;;;;;;;;6123527;23;20075;-90
2022/05/04 23:00:33;;;;;;;12.63;6.25;;;;;;;;;;6124225;23;20076;-90
2022/05/04 23:02:59;;;;;;;18.50;7.13;;;;;;;;;;6124527;23;20044;-91
2022/05/04 23:05:25;;;;;;;17.70;7.60;;;;;;;;;;6100771;23;20020;-90
2022/05/04 23:07:51;;;;;;;13.48;6.72;;;;;;;;;;6125379;23;20013;-91
2022/05/04 23:10:23;;;;;;;14.52;7.30;;;;;;;;;;6122024;23;20024;-91
2022/05/04 23:12:50;;;;;;;16.23;7.13;;;;;;;;;;6124960;23;20334;-91
2022/05/04 23:15:16;;;;;;;13.18;6.40;;;;;;;;;;6123638;23;20197;-92
2022/05/04 23:17:42;;;;;;;12.88;5.38;;;;;;;;;;6124418;23;20024;-90
2022/05/04 23:20:09;;;;;;;12.07;5.63;;;;;;;;;;6099837;23;20017;-90
2022/05/04 23:22:35;;;;;;;23.27;6.68;;;;;;;;;;6101093;23;20025;-90
2022/05/04 23:25:01;;;;;;;12.05;5.93;;;;;;;;;;6124156;23;20013;-91
2022/05/04 23:27:27;;;;;;;13.88;6.05;;;;;;;;;;6121795;23;20048;-90
2022/05/04 23:29:53;;;;;;;13.25;6.43;;;;;;;;;;6123961;23;20071;-90
2022/05/04 23:32:19;;;;;;;17.80;6.30;;;;;;;;;;6119080;23;20021;-91
2022/05/04 23:34:46;;;;;;;17.73;6.72;;;;;;;;;;6120545;23;20028;-90
2022/05/04 23:37:27;;;;;;;12.10;6.22;;;;;;;;;;6096222;23;20710;-91
2022/05/04 23:39:54;;;;;;;16.63;6.43;;;;;;;;;;6120906;23;20020;-91
2022/05/04 23:42:21;;;;;;;17.17;6.75;;;;;;;;;;6123940;23;20025;-91
2022/05/04 23:44:47;;;;;;;15.65;6.68;;;;;;;;;;6096802;23;20036;-91
2022/05/04 23:47:14;;;;;;;13.35;6.55;;;;;;;;;;6097399;23;20729;-91
2022/05/04 23:49:40;;;;;;;14.65;6.38;;;;;;;;;;6123408;23;20021;-91
2022/05/04 23:52:06;;;;;;;11.35;5.93;;;;;;;;;;6098402;23;20458;-91
2022/05/04 23:54:32;;;;;;;14.75;6.50;;;;;;;;;;6098162;23;20024;-91
2022/05/04 23:57:02;;;;;;;14.57;6.82;;;;;;;;;;6124877;23;20067;-91
2022/05/04 23:59:28;;;;;;;14.43;6.80;;;;;;;;;;6124120;23;20017;-91
